Time;durP1;ratioP1;P1;durP2;ratioP2;P2;SDS_P1;SDS_P2;PMS_P1;PMS_P2;Temp;Humidity;BMP_temperature;BMP_pressure;BME280_temperature;BME280_humidity;BME280_pressure;Samples;Min_cycle;Max_cycle;Signal;HPM_P1;HPM_P2
2023/07/21 00:02:15;;;;;;;3.28;1.60;;;18.40;63.60;;;;;;4976214;28;20144;-59
2023/07/21 00:04:40;;;;;;;2.05;1.67;;;18.30;63.70;;;;;;4975216;28;20042;-60
2023/07/21 00:07:06;;;;;;;2.38;1.50;;;18.40;63.60;;;;;;4976267;28;20038;-62
2023/07/21 00:09:32;;;;;;;2.22;1.52;;;18.30;63.60;;;;;;4974830;28;20514;-59
2023/07/21 00:11:57;;;;;;;1.70;1.60;;;18.40;63.70;;;;;;4975358;28;20445;-61
2023/07/21 00:14:24;;;;;;;2.47;1.98;;;18.40;63.80;;;;;;4975081;28;20049;-59
2023/07/21 00:16:53;;;;;;;3.55;1.63;;;18.40;63.50;;;;;;4974931;28;20077;-61
2023/07/21 00:19:19;;;;;;;1.45;1.33;;;18.40;63.40;;;;;;4975238;28;20037;-60
2023/07/21 00:21:44;;;;;;;2.25;1.52;;;18.40;63.40;;;;;;4976526;28;20043;-59
2023/07/21 00:24:11;;;;;;;5.38;1.60;;;18.30;63.50;;;;;;4975357;28;20503;-61
2023/07/21 00:26:36;;;;;;;3.20;1.50;;;18.20;63.40;;;;;;4974907;28;20041;-61
2023/07/21 00:29:03;;;;;;;1.80;1.40;;;18.10;63.50;;;;;;4975194;28;20038;-61
2023/07/21 00:31:29;;;;;;;2.45;1.50;;;18.10;63.60;;;;;;4973002;28;20046;-61
2023/07/21 00:33:54;;;;;;;2.25;1.40;;;18.10;63.70;;;;;;4975984;28;20034;-61
2023/07/21 00:36:20;;;;;;;1.58;1.48;;;18.00;63.80;;;;;;4974074;28;20593;-60
2023/07/21 00:38:47;;;;;;;1.63;1.35;;;17.90;63.80;;;;;;4978124;28;20564;-61
2023/07/21 00:41:15;;;;;;;2.50;1.45;;;17.80;64.00;;;;;;4977191;28;20537;-57
2023/07/21 00:43:41;;;;;;;2.05;1.52;;;17.80;64.10;;;;;;4978090;28;20419;-60
2023/07/21 00:46:07;;;;;;;1.95;1.77;;;17.70;64.50;;;;;;4974522;28;20034;-60
2023/07/21 00:48:33;;;;;;;3.72;1.55;;;17.70;64.70;;;;;;4975070;28;20093;-60
2023/07/21 00:50:59;;;;;;;2.85;1.60;;;17.70;65.00;;;;;;4974725;28;20046;-59
2023/07/21 00:53:26;;;;;;;5.38;1.83;;;17.60;65.00;;;;;;4973494;28;20037;-61
2023/07/21 00:55:52;;;;;;;3.83;1.60;;;17.60;65.20;;;;;;4974696;28;20053;-58
2023/07/21 00:58:19;;;;;;;2.70;1.50;;;17.60;65.30;;;;;;4974678;28;20465;-61
2023/07/21 01:00:46;;;;;;;3.42;1.60;;;17.60;65.40;;;;;;4974628;28;20049;-61
2023/07/21 01:03:13;;;;;;;2.30;1.90;;;17.70;65.50;;;;;;4973919;28;20038;-59
2023/07/21 01:05:42;;;;;;;2.95;1.73;;;17.60;65.50;;;;;;4973779;28;20071;-60
2023/07/21 01:08:09;;;;;;;1.55;1.42;;;17.70;65.50;;;;;;4973601;28;20030;-59
2023/07/21 01:10:38;;;;;;;2.55;1.60;;;17.60;65.50;;;;;;4975150;28;20038;-62
2023/07/21 01:13:05;;;;;;;1.40;1.30;;;17.60;65.50;;;;;;4970160;28;20066;-59
2023/07/21 01:15:33;;;;;;;1.88;1.52;;;17.60;65.50;;;;;;4971810;28;20035;-61
2023/07/21 01:17:59;;;;;;;4.82;2.17;;;17.60;65.50;;;;;;4974119;28;20097;-59
2023/07/21 01:20:27;;;;;;;2.58;1.70;;;17.60;65.50;;;;;;4971600;28;20042;-61
2023/07/21 01:22:57;;;;;;;8.65;2.00;;;17.60;65.30;;;;;;4973093;28;20043;-61
2023/07/21 01:25:24;;;;;;;5.75;1.42;;;17.60;65.30;;;;;;4974971;28;20035;-61
2023/07/21 01:27:52;;;;;;;2.17;1.45;;;17.50;65.40;;;;;;4974805;28;20046;-60
2023/07/21 01:30:19;;;;;;;2.40;1.60;;;17.50;65.40;;;;;;4974851;28;20045;-61
2023/07/21 01:32:48;;;;;;;2.35;1.60;;;17.40;65.70;;;;;;4973710;28;20360;-60
2023/07/21 01:35:17;;;;;;;1.63;1.40;;;17.40;65.60;;;;;;4974083;28;20038;-59
2023/07/21 01:37:45;;;;;;;2.30;1.70;;;17.40;65.90;;;;;;4973228;28;20023;-59
2023/07/21 01:40:13;;;;;;;2.30;1.50;;;17.40;66.00;;;;;;4975801;28;20411;-60
2023/07/21 01:42:41;;;;;;;2.33;1.50;;;17.40;66.10;;;;;;4975643;28;20043;-59
2023/07/21 01:45:07;;;;;;;2.95;1.50;;;17.50;66.00;;;;;;4975364;28;20132;-59
2023/07/21 01:47:35;;;;;;;3.83;1.55;;;17.50;65.90;;;;;;4975725;28;20041;-60
2023/07/21 01:50:03;;;;;;;2.60;1.40;;;17.60;65.90;;;;;;4976426;28;20518;-60
2023/07/21 01:52:31;;;;;;;2.90;1.77;;;17.70;65.80;;;;;;4977549;28;20202;-60
2023/07/21 01:55:02;;;;;;;3.05;2.22;;;17.70;65.90;;;;;;4976317;28;20086;-60
2023/07/21 01:57:36;;;;;;;3.10;2.10;;;17.70;65.30;;;;;;4977518;28;20122;-60
2023/07/21 02:00:04;;;;;;;3.45;1.83;;;17.70;65.30;;;;;;4974155;28;20046;-61
2023/07/21 02:02:30;;;;;;;2.25;1.90;;;17.70;65.20;;;;;;4977906;28;20038;-60
2023/07/21 02:04:56;;;;;;;2.22;1.80;;;17.60;65.30;;;;;;4974629;28;20050;-60
2023/07/21 02:07:22;;;;;;;2.65;1.80;;;17.70;65.70;;;;;;4976582;28;20097;-60
2023/07/21 02:09:52;;;;;;;1.70;1.50;;;17.70;65.70;;;;;;4974637;28;20518;-60
2023/07/21 02:12:17;;;;;;;2.60;1.70;;;17.60;65.70;;;;;;4972322;28;20045;-60
2023/07/21 02:14:44;;;;;;;2.08;1.88;;;17.60;65.30;;;;;;4976272;28;20031;-60
2023/07/21 02:17:10;;;;;;;3.97;1.85;;;17.60;65.40;;;;;;4978429;28;20525;-60
2023/07/21 02:19:35;;;;;;;1.83;1.58;;;17.50;65.70;;;;;;4975588;28;20077;-59
2023/07/21 02:22:03;;;;;;;1.98;1.83;;;17.50;66.00;;;;;;4975471;28;20085;-58
2023/07/21 02:24:28;;;;;;;5.10;1.60;;;17.50;66.00;;;;;;4977413;28;20422;-60
2023/07/21 02:26:54;;;;;;;2.17;1.45;;;17.60;66.00;;;;;;4974879;28;20046;-60
2023/07/21 02:29:20;;;;;;;2.47;1.48;;;17.60;65.80;;;;;;4976674;28;20043;-61
2023/07/21 02:31:48;;;;;;;2.53;1.60;;;17.60;65.50;;;;;;4975139;28;20038;-60
2023/07/21 02:34:14;;;;;;;2.80;1.40;;;17.60;65.50;;;;;;4977301;28;20038;-60
2023/07/21 02:36:39;;;;;;;2.65;1.58;;;17.50;65.40;;;;;;4975896;28;20041;-60
2023/07/21 02:39:05;;;;;;;1.75;1.52;;;17.50;65.70;;;;;;4977338;28;20122;-58
2023/07/21 02:41:33;;;;;;;3.28;1.70;;;17.50;65.90;;;;;;4978785;28;20403;-58
2023/07/21 02:43:59;;;;;;;2.00;1.52;;;17.50;66.20;;;;;;4993646;28;20089;-59
2023/07/21 02:46:25;;;;;;;2.15;1.60;;;17.50;66.20;;;;;;4978041;28;20038;-60
2023/07/21 02:48:50;;;;;;;2.45;1.58;;;17.50;66.20;;;;;;4975409;28;20063;-60
2023/07/21 02:51:16;;;;;;;2.05;1.50;;;17.50;66.20;;;;;;4974550;28;20030;-59
2023/07/21 02:53:42;;;;;;;2.80;1.33;;;17.60;66.20;;;;;;4976411;28;20031;-60
2023/07/21 02:56:08;;;;;;;4.15;1.55;;;17.60;66.20;;;;;;4977846;28;20125;-60
2023/07/21 02:58:34;;;;;;;3.80;1.40;;;17.70;66.00;;;;;;4975314;28;20034;-60
2023/07/21 03:01:03;;;;;;;2.22;1.52;;;17.70;66.00;;;;;;4974484;28;20403;-60
2023/07/21 03:03:29;;;;;;;1.55;1.35;;;17.70;66.20;;;;;;4975809;28;20030;-58
2023/07/21 03:05:54;;;;;;;5.05;1.85;;;17.60;66.20;;;;;;4975287;28;20093;-61
2023/07/21 03:08:26;;;;;;;2.55;1.35;;;17.60;66.40;;;;;;4976041;28;20065;-60
2023/07/21 03:10:53;;;;;;;1.40;1.27;;;17.50;66.60;;;;;;4975822;28;20030;-59
2023/07/21 03:13:20;;;;;;;2.72;1.50;;;17.50;67.60;;;;;;4974638;28;20117;-59
2023/07/21 03:15:46;;;;;;;2.78;1.48;;;17.50;67.90;;;;;;4975211;28;20038;-60
2023/07/21 03:18:12;;;;;;;4.10;1.60;;;17.50;68.00;;;;;;4974273;28;20035;-59
2023/07/21 03:20:37;;;;;;;3.08;1.60;;;17.50;67.80;;;;;;4975549;28;20468;-58
2023/07/21 03:23:03;;;;;;;2.20;1.70;;;17.60;67.90;;;;;;4975872;28;20450;-58
2023/07/21 03:25:32;;;;;;;2.17;1.80;;;17.70;68.10;;;;;;4975530;28;20092;-61
2023/07/21 03:27:57;;;;;;;1.95;1.65;;;17.70;67.90;;;;;;4970653;28;20031;-59
2023/07/21 03:30:23;;;;;;;2.38;1.50;;;17.70;67.70;;;;;;4967327;28;20030;-60
2023/07/21 03:32:49;;;;;;;1.85;1.40;;;17.60;67.50;;;;;;4969674;28;20035;-60
2023/07/21 03:35:14;;;;;;;3.33;1.55;;;17.60;67.70;;;;;;4970334;28;20397;-61
2023/07/21 03:37:40;;;;;;;2.72;1.42;;;17.50;68.00;;;;;;4970453;28;20125;-60
2023/07/21 03:40:07;;;;;;;3.25;1.70;;;17.60;68.10;;;;;;4970449;28;20141;-59
2023/07/21 03:42:34;;;;;;;2.47;1.60;;;17.60;68.00;;;;;;4977107;28;20106;-59
2023/07/21 03:45:08;;;;;;;1.80;1.70;;;17.60;68.10;;;;;;4977484;28;20047;-56
2023/07/21 03:47:35;;;;;;;1.65;1.42;;;17.60;68.20;;;;;;4975628;28;20054;-59
2023/07/21 03:50:02;;;;;;;2.75;1.70;;;17.60;68.40;;;;;;4968483;28;20418;-58
2023/07/21 03:52:28;;;;;;;2.25;1.70;;;17.60;68.00;;;;;;4968786;28;20047;-61
2023/07/21 03:54:57;;;;;;;2.63;1.85;;;17.60;68.00;;;;;;4970054;28;20039;-61
2023/07/21 03:57:22;;;;;;;3.55;1.58;;;17.60;68.00;;;;;;4972049;28;20088;-60
2023/07/21 03:59:52;;;;;;;2.35;1.92;;;17.60;67.80;;;;;;4967939;28;20038;-59
2023/07/21 04:02:19;;;;;;;5.22;2.03;;;17.60;67.40;;;;;;4970459;28;20471;-59
2023/07/21 04:04:46;;;;;;;1.80;1.60;;;17.50;67.10;;;;;;4968607;28;20167;-59
2023/07/21 04:07:12;;;;;;;1.95;1.80;;;17.50;67.30;;;;;;4968250;28;20606;-60
2023/07/21 04:09:38;;;;;;;2.88;1.63;;;17.40;67.60;;;;;;4968582;28;20489;-60
2023/07/21 04:12:07;;;;;;;1.60;1.50;;;17.40;68.00;;;;;;4968137;28;20125;-60
2023/07/21 04:14:33;;;;;;;1.92;1.70;;;17.40;68.40;;;;;;4969403;28;20035;-60
2023/07/21 04:16:58;;;;;;;4.45;1.88;;;17.50;68.10;;;;;;4969159;28;20041;-58
2023/07/21 04:19:27;;;;;;;2.35;1.65;;;17.40;68.20;;;;;;4967671;28;20036;-60
2023/07/21 04:21:53;;;;;;;2.55;1.60;;;17.40;68.40;;;;;;4968552;28;20049;-58
2023/07/21 04:24:19;;;;;;;3.35;1.58;;;17.50;68.60;;;;;;4968695;28;20502;-60
2023/07/21 04:26:45;;;;;;;4.38;1.85;;;17.50;68.80;;;;;;4967318;28;20070;-61
2023/07/21 04:29:11;;;;;;;4.30;1.88;;;17.50;68.90;;;;;;4969437;28;20069;-61
2023/07/21 04:31:36;;;;;;;3.65;1.60;;;17.50;69.20;;;;;;4968357;28;20053;-58
2023/07/21 04:34:02;;;;;;;2.40;1.90;;;17.50;69.30;;;;;;4967718;28;20031;-60
2023/07/21 04:36:28;;;;;;;3.20;1.70;;;17.50;70.30;;;;;;4967352;28;20125;-58
2023/07/21 04:38:54;;;;;;;2.80;1.90;;;17.50;69.50;;;;;;4967788;28;21007;-60
2023/07/21 04:41:20;;;;;;;1.92;1.80;;;17.50;69.70;;;;;;4967928;28;20043;-59
2023/07/21 04:43:45;;;;;;;2.22;1.73;;;17.50;69.70;;;;;;4970720;28;20104;-58
2023/07/21 04:46:12;;;;;;;1.80;1.70;;;17.60;69.50;;;;;;4968182;28;20576;-60
2023/07/21 04:48:37;;;;;;;2.28;1.55;;;17.60;70.70;;;;;;4966542;28;20042;-60
2023/07/21 04:51:06;;;;;;;3.83;1.70;;;17.70;69.90;;;;;;4967812;28;20043;-59
2023/07/21 04:53:31;;;;;;;4.57;1.98;;;17.70;69.70;;;;;;4971113;28;20426;-58
2023/07/21 04:55:58;;;;;;;2.20;1.80;;;17.80;69.80;;;;;;4967766;28;20035;-60
2023/07/21 04:58:24;;;;;;;3.53;1.65;;;17.80;69.70;;;;;;4967750;28;20077;-59
2023/07/21 05:00:54;;;;;;;5.97;1.77;;;17.90;70.00;;;;;;4970091;28;20592;-59
2023/07/21 05:03:20;;;;;;;3.75;2.13;;;17.90;69.90;;;;;;4966583;28;20042;-59
2023/07/21 05:05:46;;;;;;;2.90;1.90;;;18.00;69.90;;;;;;4969134;28;20398;-60
2023/07/21 05:08:12;;;;;;;3.55;1.95;;;18.00;69.90;;;;;;4967991;28;20137;-60
2023/07/21 05:10:38;;;;;;;2.22;1.70;;;18.00;69.90;;;;;;4968092;28;20038;-61
2023/07/21 05:13:05;;;;;;;2.72;1.80;;;18.00;69.90;;;;;;4966418;28;20559;-59
2023/07/21 05:15:35;;;;;;;2.60;2.00;;;18.00;69.80;;;;;;4970648;28;20038;-60
2023/07/21 05:18:01;;;;;;;2.22;1.90;;;18.00;69.70;;;;;;4967276;28;20035;-60
2023/07/21 05:20:26;;;;;;;3.17;1.73;;;18.00;69.70;;;;;;4970347;28;20117;-61
2023/07/21 05:22:52;;;;;;;2.13;1.65;;;18.10;69.80;;;;;;4971866;28;20129;-60
2023/07/21 05:25:17;;;;;;;2.30;1.58;;;18.10;69.40;;;;;;4971492;28;20050;-59
2023/07/21 05:27:47;;;;;;;2.58;1.58;;;18.20;69.10;;;;;;4971021;28;20540;-61
2023/07/21 05:30:13;;;;;;;7.53;1.88;;;18.20;68.30;;;;;;4975133;28;20077;-59
2023/07/21 05:32:41;;;;;;;3.15;1.70;;;18.20;67.70;;;;;;4969608;28;20307;-60
2023/07/21 05:35:10;;;;;;;4.68;1.50;;;18.30;67.50;;;;;;4970541;28;20058;-60
2023/07/21 05:37:36;;;;;;;3.90;1.60;;;18.40;67.30;;;;;;4971236;28;20038;-60
2023/07/21 05:40:03;;;;;;;2.03;1.48;;;18.40;66.90;;;;;;4972047;28;20581;-61
2023/07/21 05:42:29;;;;;;;3.13;1.40;;;18.50;66.30;;;;;;4970691;28;20415;-61
2023/07/21 05:44:54;;;;;;;3.60;1.60;;;18.50;66.00;;;;;;4972055;28;20035;-60
2023/07/21 05:47:21;;;;;;;8.38;1.77;;;18.60;66.00;;;;;;4972982;28;20066;-60
2023/07/21 05:49:46;;;;;;;2.92;1.38;;;18.70;65.80;;;;;;4970735;28;20053;-60
2023/07/21 05:52:12;;;;;;;3.72;1.60;;;18.70;65.50;;;;;;4972876;28;20035;-60
2023/07/21 05:54:39;;;;;;;9.02;1.63;;;18.80;65.30;;;;;;4973417;28;20042;-60
2023/07/21 05:57:06;;;;;;;2.15;1.42;;;18.80;65.20;;;;;;4969606;28;20093;-60
2023/07/21 05:59:32;;;;;;;2.13;1.58;;;18.90;65.00;;;;;;4970442;28;20558;-60
2023/07/21 06:02:01;;;;;;;3.80;1.45;;;19.00;64.30;;;;;;4973952;28;20026;-60
2023/07/21 06:04:27;;;;;;;3.05;1.38;;;19.00;63.40;;;;;;4970884;28;20061;-61
2023/07/21 06:06:54;;;;;;;4.55;1.90;;;19.00;63.60;;;;;;4972907;28;20219;-60
2023/07/21 06:09:19;;;;;;;9.20;1.92;;;19.00;63.70;;;;;;4970280;28;20038;-60
2023/07/21 06:11:45;;;;;;;9.18;1.90;;;19.10;63.60;;;;;;4970127;28;20043;-60
2023/07/21 06:14:11;;;;;;;8.50;1.75;;;19.10;63.40;;;;;;4970185;28;20133;-61
2023/07/21 06:16:36;;;;;;;9.57;1.98;;;19.10;63.40;;;;;;4972152;28;20122;-59
2023/07/21 06:19:02;;;;;;;3.88;1.50;;;19.20;63.80;;;;;;4970822;28;20622;-61
2023/07/21 06:21:27;;;;;;;10.70;1.90;;;19.20;64.00;;;;;;4959813;28;20556;-59
2023/07/21 06:23:53;;;;;;;7.63;1.73;;;19.20;64.00;;;;;;4968423;28;20066;-61
2023/07/21 06:26:19;;;;;;;12.07;1.90;;;19.30;64.20;;;;;;4965771;28;20079;-62
2023/07/21 06:28:45;;;;;;;5.47;1.77;;;19.30;64.60;;;;;;4970961;28;20039;-59
2023/07/21 06:31:11;;;;;;;4.35;2.00;;;19.40;64.80;;;;;;4968005;28;20049;-59
2023/07/21 06:33:37;;;;;;;3.17;1.52;;;19.40;64.60;;;;;;4971919;28;20031;-61
2023/07/21 06:36:03;;;;;;;2.00;1.40;;;19.40;64.80;;;;;;4966889;28;20038;-61
2023/07/21 06:38:29;;;;;;;2.83;1.50;;;19.50;64.50;;;;;;4965283;28;20128;-61
2023/07/21 06:40:54;;;;;;;1.70;1.35;;;19.50;63.50;;;;;;4960169;28;20066;-62
2023/07/21 06:43:20;;;;;;;2.13;1.38;;;19.60;62.80;;;;;;4964724;28;20035;-61
2023/07/21 06:45:46;;;;;;;2.22;1.30;;;19.70;62.70;;;;;;4967156;28;20026;-61
2023/07/21 06:48:12;;;;;;;2.75;1.50;;;19.70;62.20;;;;;;4978620;28;20509;-61
2023/07/21 06:50:38;;;;;;;1.90;1.38;;;19.80;62.40;;;;;;4980118;28;20030;-61
2023/07/21 06:53:05;;;;;;;1.90;1.40;;;19.90;61.50;;;;;;4979088;28;20054;-61
2023/07/21 06:55:32;;;;;;;3.33;1.30;;;20.00;61.20;;;;;;4980272;28;20046;-61
2023/07/21 06:57:57;;;;;;;2.50;1.40;;;20.10;61.20;;;;;;4980869;28;20514;-61
2023/07/21 07:00:23;;;;;;;3.72;1.40;;;20.20;61.00;;;;;;4974692;28;20070;-62
2023/07/21 07:02:49;;;;;;;3.25;1.20;;;20.30;61.60;;;;;;4964477;28;20043;-62
2023/07/21 07:05:16;;;;;;;1.95;1.08;;;20.40;60.80;;;;;;4966669;28;20034;-61
2023/07/21 07:07:42;;;;;;;1.58;1.20;;;20.50;60.00;;;;;;4964592;28;20065;-62
2023/07/21 07:10:08;;;;;;;2.22;1.20;;;20.60;59.60;;;;;;4963693;28;21594;-62
2023/07/21 07:12:34;;;;;;;1.55;1.23;;;20.70;59.60;;;;;;4963609;28;20052;-59
2023/07/21 07:14:59;;;;;;;1.02;0.80;;;20.80;59.20;;;;;;4959398;28;20042;-60
2023/07/21 07:17:25;;;;;;;2.67;1.35;;;20.90;59.20;;;;;;4961972;28;20088;-62
2023/07/21 07:19:50;;;;;;;7.03;1.15;;;21.00;59.00;;;;;;4971334;28;20038;-61
2023/07/21 07:22:17;;;;;;;4.82;1.23;;;21.10;59.00;;;;;;4978358;28;20030;-61
2023/07/21 07:24:43;;;;;;;5.00;1.42;;;21.20;58.50;;;;;;4979334;28;20715;-57
2023/07/21 07:27:08;;;;;;;2.13;1.10;;;21.30;58.00;;;;;;4981592;28;20053;-61
2023/07/21 07:29:35;;;;;;;4.38;1.30;;;21.40;58.10;;;;;;4970772;28;20042;-61
2023/07/21 07:32:01;;;;;;;3.53;1.48;;;21.50;57.80;;;;;;4977082;28;20054;-60
2023/07/21 07:34:26;;;;;;;4.20;1.20;;;21.60;57.60;;;;;;4967734;28;20042;-61
2023/07/21 07:36:52;;;;;;;15.07;1.40;;;21.70;57.70;;;;;;4971465;28;20506;-61
2023/07/21 07:39:18;;;;;;;3.47;1.35;;;21.80;57.70;;;;;;4975845;28;20038;-61
2023/07/21 07:41:49;;;;;;;2.65;1.10;;;21.80;57.20;;;;;;4978790;28;20066;-61
2023/07/21 07:44:14;;;;;;;5.60;1.20;;;21.90;57.10;;;;;;4979571;28;20077;-61
2023/07/21 07:46:41;;;;;;;4.30;1.10;;;22.00;57.00;;;;;;4961649;28;20559;-62
2023/07/21 07:49:06;;;;;;;8.90;1.33;;;22.10;57.10;;;;;;4960040;28;20054;-62
2023/07/21 07:51:32;;;;;;;3.08;1.27;;;22.10;57.00;;;;;;4965183;28;20042;-61
2023/07/21 07:53:58;;;;;;;4.18;1.42;;;22.20;57.10;;;;;;4962731;28;20132;-60
2023/07/21 07:56:23;;;;;;;5.38;1.33;;;22.30;57.00;;;;;;4962266;28;20573;-59
2023/07/21 07:58:49;;;;;;;6.50;1.42;;;22.40;57.10;;;;;;4964497;28;20057;-61
2023/07/21 08:01:15;;;;;;;1.10;1.00;;;22.50;57.20;;;;;;4976374;28;20518;-62
2023/07/21 08:03:43;;;;;;;2.08;1.13;;;22.50;57.10;;;;;;4971164;28;20039;-60
2023/07/21 08:06:13;;;;;;;2.75;1.30;;;22.60;57.30;;;;;;4974207;28;20145;-62
2023/07/21 08:08:40;;;;;;;6.53;1.23;;;22.70;57.20;;;;;;4962768;28;20077;-61
2023/07/21 08:11:06;;;;;;;6.93;0.93;;;22.80;57.00;;;;;;4963895;28;20510;-61
2023/07/21 08:13:32;;;;;;;7.60;1.17;;;22.90;56.90;;;;;;4960537;28;20043;-61
2023/07/21 08:15:57;;;;;;;3.33;1.10;;;22.90;56.90;;;;;;4959064;28;20587;-60
2023/07/21 08:18:23;;;;;;;4.07;1.20;;;23.00;56.80;;;;;;4963971;28;20398;-60
2023/07/21 08:20:50;;;;;;;2.25;1.33;;;23.10;56.20;;;;;;4962976;28;20508;-60
2023/07/21 08:23:16;;;;;;;2.33;1.17;;;23.10;56.20;;;;;;4963510;28;20108;-60
2023/07/21 08:25:42;;;;;;;2.08;1.08;;;23.20;56.10;;;;;;4961162;28;20457;-60
2023/07/21 08:28:08;;;;;;;1.98;1.48;;;23.30;56.30;;;;;;4957209;28;20042;-60
2023/07/21 08:30:34;;;;;;;2.95;1.20;;;23.40;55.80;;;;;;4960368;28;20042;-61
2023/07/21 08:33:01;;;;;;;2.17;1.17;;;23.50;55.50;;;;;;4965545;28;20526;-59
2023/07/21 08:35:27;;;;;;;2.45;1.30;;;23.60;55.60;;;;;;4961469;28;20104;-61
2023/07/21 08:37:54;;;;;;;3.95;1.20;;;23.70;55.40;;;;;;4962561;28;20166;-60
2023/07/21 08:40:22;;;;;;;2.42;1.50;;;23.90;55.40;;;;;;4963291;28;20037;-59
2023/07/21 08:42:49;;;;;;;3.83;1.48;;;24.00;54.40;;;;;;4962476;28;20043;-61
2023/07/21 08:45:15;;;;;;;4.28;1.30;;;24.10;54.40;;;;;;4963441;28;20050;-61
2023/07/21 08:47:41;;;;;;;1.90;1.10;;;24.20;54.20;;;;;;4976977;28;20076;-61
2023/07/21 08:50:07;;;;;;;4.75;1.08;;;24.30;53.40;;;;;;4976033;28;20066;-62
2023/07/21 08:52:33;;;;;;;3.13;1.00;;;24.40;53.00;;;;;;4974310;28;20038;-60
2023/07/21 08:55:00;;;;;;;3.13;1.10;;;24.50;52.90;;;;;;4970964;28;20247;-61
2023/07/21 08:57:25;;;;;;;1.85;1.20;;;24.60;52.40;;;;;;4968567;28;20047;-63
2023/07/21 08:59:54;;;;;;;1.27;1.17;;;24.60;52.40;;;;;;4968539;28;20035;-62
2023/07/21 09:02:46;;;;;;;7.72;1.42;;;24.70;52.50;;;;;;4975416;28;20045;-60
2023/07/21 09:05:18;;;;;;;3.50;1.50;;;24.80;52.00;;;;;;4971591;28;20133;-60
2023/07/21 09:07:45;;;;;;;4.35;1.42;;;24.80;52.40;;;;;;4976862;28;20478;-61
2023/07/21 09:10:11;;;;;;;3.92;1.42;;;24.90;52.60;;;;;;4974651;28;20070;-63
2023/07/21 09:12:37;;;;;;;3.75;1.40;;;24.90;52.50;;;;;;4974962;28;20533;-61
2023/07/21 09:15:10;;;;;;;4.65;1.60;;;25.00;52.30;;;;;;4973361;28;20739;-61
2023/07/21 09:17:43;;;;;;;3.42;1.40;;;25.00;51.60;;;;;;4975983;28;20042;-59
2023/07/21 09:20:10;;;;;;;3.40;1.42;;;25.10;51.90;;;;;;4975999;28;20525;-62
2023/07/21 09:22:36;;;;;;;4.82;1.50;;;25.10;52.00;;;;;;4975676;28;20047;-60
2023/07/21 09:25:01;;;;;;;3.53;1.45;;;25.20;51.90;;;;;;4967484;28;20042;-61
2023/07/21 09:27:27;;;;;;;2.40;1.33;;;25.30;52.00;;;;;;4971617;28;20042;-61
2023/07/21 09:30:00;;;;;;;11.73;1.60;;;25.30;52.10;;;;;;4970343;28;20066;-61
2023/07/21 09:32:26;;;;;;;5.65;1.40;;;25.50;51.80;;;;;;4970569;28;20047;-62
2023/07/21 09:34:56;;;;;;;4.57;1.25;;;25.50;51.70;;;;;;4970605;28;20081;-62
2023/07/21 09:37:25;;;;;;;3.13;1.55;;;25.60;51.30;;;;;;4969157;28;20430;-59
2023/07/21 09:39:57;;;;;;;4.53;1.58;;;25.70;51.40;;;;;;4972056;28;20031;-60
2023/07/21 09:42:24;;;;;;;5.03;1.58;;;25.80;50.40;;;;;;4973280;28;20048;-61
2023/07/21 09:44:51;;;;;;;4.03;1.65;;;26.00;50.30;;;;;;4974665;28;20515;-60
2023/07/21 09:47:17;;;;;;;3.20;1.30;;;26.00;49.90;;;;;;4970624;28;20043;-60
2023/07/21 09:49:44;;;;;;;5.38;0.93;;;26.20;50.00;;;;;;4969038;28;20081;-62
2023/07/21 09:52:15;;;;;;;1.73;1.10;;;26.30;49.40;;;;;;4972641;28;20030;-61
2023/07/21 09:54:44;;;;;;;5.00;1.30;;;26.30;48.10;;;;;;4971460;28;20491;-62
2023/07/21 09:57:12;;;;;;;3.67;1.15;;;26.40;48.00;;;;;;4973060;28;20045;-60
2023/07/21 09:59:42;;;;;;;2.92;1.58;;;26.50;48.50;;;;;;4969986;28;20047;-60
2023/07/21 10:02:09;;;;;;;11.57;1.50;;;26.50;48.30;;;;;;4970302;28;20077;-61
2023/07/21 10:04:35;;;;;;;1.67;1.33;;;26.60;47.90;;;;;;4971091;28;20329;-61
2023/07/21 10:07:03;;;;;;;4.25;1.48;;;26.60;47.70;;;;;;4972234;28;20066;-62
2023/07/21 10:09:32;;;;;;;5.75;1.63;;;26.80;47.50;;;;;;4973340;28;20117;-59
2023/07/21 10:12:17;;;;;;;4.18;1.30;;;26.80;46.70;;;;;;4974353;28;20030;-61
2023/07/21 10:14:44;;;;;;;3.05;1.30;;;26.90;46.00;;;;;;4975402;28;20039;-61
2023/07/21 10:17:11;;;;;;;8.38;1.40;;;26.90;46.50;;;;;;4977224;28;20031;-61
2023/07/21 10:19:41;;;;;;;4.00;1.30;;;27.00;46.50;;;;;;4975599;28;20031;-61
2023/07/21 10:22:13;;;;;;;2.08;1.20;;;27.00;45.80;;;;;;4977715;28;20133;-61
2023/07/21 10:24:50;;;;;;;1.40;1.30;;;27.00;46.00;;;;;;4976255;28;20503;-61
2023/07/21 10:27:21;;;;;;;1.75;1.02;;;27.10;45.10;;;;;;4975909;28;20061;-62
2023/07/21 10:29:51;;;;;;;5.95;1.20;;;27.10;45.10;;;;;;4977613;28;20034;-62
2023/07/21 10:32:20;;;;;;;3.45;1.00;;;27.10;45.50;;;;;;4976989;28;20173;-60
2023/07/21 10:34:45;;;;;;;1.35;1.00;;;27.20;45.70;;;;;;4977867;28;20031;-61
2023/07/21 10:37:11;;;;;;;2.10;1.00;;;27.30;45.30;;;;;;4974902;28;20530;-61
2023/07/21 10:39:44;;;;;;;4.30;1.33;;;27.30;44.90;;;;;;4977530;28;20038;-62
2023/07/21 10:42:11;;;;;;;1.75;0.95;;;27.30;44.50;;;;;;4978482;28;20046;-61
2023/07/21 10:44:39;;;;;;;2.00;1.10;;;27.30;43.50;;;;;;4975141;28;20580;-62
2023/07/21 10:47:15;;;;;;;1.83;1.08;;;27.30;44.10;;;;;;4971126;28;20050;-61
2023/07/21 10:49:41;;;;;;;1.50;1.00;;;27.20;43.60;;;;;;4975624;28;20042;-60
2023/07/21 10:52:08;;;;;;;1.73;0.95;;;27.20;44.40;;;;;;4980044;28;20106;-60
2023/07/21 10:54:34;;;;;;;3.67;1.17;;;27.10;44.30;;;;;;4979153;28;20117;-61
2023/07/21 10:57:00;;;;;;;1.40;0.98;;;27.10;44.80;;;;;;4971088;28;20109;-62
2023/07/21 10:59:33;;;;;;;2.28;1.23;;;27.10;45.40;;;;;;4978173;28;20058;-59
2023/07/21 11:02:00;;;;;;;4.10;1.20;;;27.10;44.70;;;;;;4978564;28;20027;-60
2023/07/21 11:04:26;;;;;;;1.70;1.10;;;27.10;44.50;;;;;;4978149;28;20071;-61
2023/07/21 11:06:53;;;;;;;2.58;1.20;;;27.00;45.10;;;;;;4979405;28;20042;-60
2023/07/21 11:09:21;;;;;;;2.20;1.50;;;27.00;44.90;;;;;;4977676;28;20064;-60
2023/07/21 11:11:54;;;;;;;2.72;1.42;;;27.00;45.10;;;;;;4979576;28;20063;-61
2023/07/21 11:14:23;;;;;;;2.33;1.15;;;27.00;44.80;;;;;;4976735;28;20027;-61
2023/07/21 11:16:57;;;;;;;1.17;1.10;;;27.00;45.00;;;;;;4977232;28;20034;-61
2023/07/21 11:19:24;;;;;;;3.03;0.97;;;27.00;44.30;;;;;;4977786;28;20037;-59
2023/07/21 11:21:50;;;;;;;2.03;1.13;;;26.90;44.80;;;;;;4977552;28;20054;-60
2023/07/21 11:24:23;;;;;;;2.67;1.20;;;26.90;44.70;;;;;;4980110;28;20514;-61
2023/07/21 11:26:49;;;;;;;5.50;1.38;;;26.80;44.50;;;;;;4979330;28;20510;-59
2023/07/21 11:29:16;;;;;;;1.63;1.48;;;26.80;44.90;;;;;;4978771;28;20089;-60
2023/07/21 11:31:42;;;;;;;2.70;1.25;;;26.70;45.00;;;;;;4979285;28;20039;-60
2023/07/21 11:34:25;;;;;;;3.05;1.35;;;26.70;45.00;;;;;;4978298;28;20064;-60
2023/07/21 11:36:55;;;;;;;2.15;1.23;;;26.60;44.70;;;;;;4980140;28;20126;-61
2023/07/21 11:39:22;;;;;;;3.33;1.00;;;26.60;44.90;;;;;;4979349;28;20042;-58
2023/07/21 11:41:51;;;;;;;4.32;1.60;;;26.60;45.50;;;;;;4978473;28;20121;-61
2023/07/21 11:44:27;;;;;;;6.30;1.38;;;26.50;45.60;;;;;;4978781;28;20037;-60
2023/07/21 11:46:56;;;;;;;3.30;1.25;;;26.40;46.00;;;;;;4978454;28;20031;-61
2023/07/21 11:49:27;;;;;;;3.10;1.30;;;26.30;46.00;;;;;;4977119;28;20058;-61
2023/07/21 11:51:53;;;;;;;3.65;1.40;;;26.30;46.50;;;;;;4978129;28;20058;-61
2023/07/21 11:54:24;;;;;;;3.33;1.20;;;26.20;46.50;;;;;;4978002;28;20113;-61
2023/07/21 11:56:51;;;;;;;2.70;1.33;;;26.00;46.80;;;;;;4978419;28;20037;-61
2023/07/21 11:59:18;;;;;;;1.23;1.10;;;26.00;46.70;;;;;;4978356;28;20034;-61
2023/07/21 12:01:43;;;;;;;1.25;1.13;;;25.90;46.60;;;;;;4978211;28;20094;-60
2023/07/21 12:04:10;;;;;;;1.77;1.27;;;25.80;46.70;;;;;;4979032;28;20677;-61
2023/07/21 12:06:35;;;;;;;1.92;1.25;;;25.80;46.90;;;;;;4976533;28;20430;-60
2023/07/21 12:09:05;;;;;;;2.35;1.50;;;25.80;47.10;;;;;;4977445;28;20134;-59
2023/07/21 12:11:31;;;;;;;2.65;1.55;;;25.80;47.20;;;;;;4972822;28;20033;-60
2023/07/21 12:13:57;;;;;;;5.40;1.20;;;25.80;47.60;;;;;;4977972;28;20046;-57
2023/07/21 12:16:23;;;;;;;3.30;1.38;;;25.90;47.50;;;;;;4968244;28;20031;-62
2023/07/21 12:18:49;;;;;;;3.70;1.70;;;25.90;48.20;;;;;;4964470;28;20061;-62
2023/07/21 12:21:17;;;;;;;2.53;1.65;;;25.90;48.60;;;;;;4967473;28;20487;-62
2023/07/21 12:23:43;;;;;;;2.95;1.60;;;26.00;49.50;;;;;;4970167;28;20030;-60
2023/07/21 12:26:09;;;;;;;5.63;1.80;;;25.90;50.00;;;;;;4971946;28;20038;-61
2023/07/21 12:28:34;;;;;;;4.70;1.80;;;25.90;50.30;;;;;;4969390;28;20034;-61
2023/07/21 12:31:00;;;;;;;3.67;2.03;;;25.90;50.90;;;;;;4971084;28;20082;-63
2023/07/21 12:33:28;;;;;;;5.25;1.92;;;25.80;51.30;;;;;;4971097;28;20042;-61
2023/07/21 12:35:54;;;;;;;3.22;2.10;;;25.70;51.80;;;;;;4973657;28;20066;-60
2023/07/21 12:38:20;;;;;;;5.45;2.40;;;25.50;52.40;;;;;;4972352;28;20550;-61
2023/07/21 12:40:46;;;;;;;3.30;2.10;;;25.40;53.00;;;;;;4966224;28;20057;-62
2023/07/21 12:43:12;;;;;;;2.97;2.42;;;25.20;53.90;;;;;;4974546;28;20053;-60
2023/07/21 12:45:39;;;;;;;5.25;2.50;;;25.10;54.60;;;;;;4971423;28;20035;-61